createdAt,value
2018-02-24T00:00:26.592Z,13.43
2018-02-24T00:02:55.583Z,13.48
2018-02-24T00:05:24.148Z,11.52
2018-02-24T00:07:53.144Z,15.38
2018-02-24T00:10:22.217Z,12.55
2018-02-24T00:12:51.596Z,13.30
2018-02-24T00:15:21.332Z,14.55
2018-02-24T00:17:50.597Z,13.93
2018-02-24T00:20:20.909Z,13.43
2018-02-24T00:22:50.495Z,14.90
2018-02-24T00:25:18.588Z,15.30
2018-02-24T00:27:47.970Z,15.50
2018-02-24T00:30:16.191Z,16.10
2018-02-24T00:32:44.820Z,16.65
2018-02-24T00:35:14.468Z,14.23
2018-02-24T00:37:44.217Z,18.25
2018-02-24T00:40:12.472Z,15.98
2018-02-24T00:42:40.872Z,15.98
2018-02-24T00:45:09.116Z,16.05
2018-02-24T00:47:37.340Z,17.67
2018-02-24T00:50:05.929Z,15.95
2018-02-24T00:52:34.925Z,18.10
2018-02-24T00:55:03.912Z,15.95
2018-02-24T00:57:33.071Z,18.65
2018-02-24T01:00:02.074Z,17.85
2018-02-24T01:02:30.304Z,15.80
2018-02-24T01:04:58.716Z,17.60
2018-02-24T01:07:26.944Z,18.90
2018-02-24T01:09:55.936Z,16.33
2018-02-24T01:12:25.037Z,18.30
2018-02-24T01:14:54.768Z,19.10
2018-02-24T01:17:24.157Z,18.80
2018-02-24T01:19:53.021Z,17.98
2018-02-24T01:22:22.385Z,18.15
2018-02-24T01:24:51.959Z,18.25
2018-02-24T01:27:21.204Z,17.58
2018-02-24T01:29:50.567Z,17.80
2018-02-24T01:32:19.933Z,17.87
2018-02-24T01:34:49.932Z,18.67
2018-02-24T01:37:18.929Z,17.75
2018-02-24T01:39:47.927Z,17.77
2018-02-24T01:42:16.463Z,18.00
2018-02-24T01:44:46.048Z,18.40
2018-02-24T01:47:14.168Z,18.35
2018-02-24T01:49:43.024Z,17.23
2018-02-24T01:52:12.024Z,18.20
2018-02-24T01:54:40.269Z,17.62
2018-02-24T01:57:09.109Z,16.48
2018-02-24T01:59:37.324Z,18.05
2018-02-24T02:02:06.687Z,18.12
2018-02-24T02:04:35.317Z,20.00
2018-02-24T02:07:04.304Z,17.58
2018-02-24T02:09:32.537Z,18.83
2018-02-24T02:12:02.283Z,17.55
2018-02-24T02:14:30.784Z,17.95
2018-02-24T02:16:59.008Z,18.02
2018-02-24T02:19:29.728Z,15.50
2018-02-24T02:21:58.208Z,18.00
2018-02-24T02:24:27.199Z,18.15
2018-02-24T02:26:55.804Z,17.25
2018-02-24T02:29:25.384Z,17.83
2018-02-24T02:31:53.488Z,16.75
2018-02-24T02:34:22.472Z,17.20
2018-02-24T02:36:52.060Z,18.70
2018-02-24T02:39:21.512Z,17.08
2018-02-24T02:41:50.494Z,17.50
2018-02-24T02:44:18.729Z,16.12
2018-02-24T02:46:46.956Z,18.50
2018-02-24T02:49:17.664Z,18.30
2018-02-24T02:51:46.664Z,17.62
2018-02-24T02:54:15.300Z,17.60
2018-02-24T02:56:43.689Z,19.50
2018-02-24T02:59:12.704Z,16.55
2018-02-24T03:01:41.337Z,18.60
2018-02-24T03:04:10.254Z,17.20
2018-02-24T03:06:38.908Z,18.52
2018-02-24T03:09:07.127Z,18.65
2018-02-24T03:11:39.019Z,18.52
2018-02-24T03:14:07.236Z,16.12
2018-02-24T03:16:35.469Z,17.92
2018-02-24T03:21:38.133Z,16.48
2018-02-24T03:24:06.696Z,17.25
2018-02-24T03:26:34.944Z,17.65
2018-02-24T03:29:05.741Z,16.80
2018-02-24T03:31:35.358Z,17.02
2018-02-24T03:34:04.190Z,17.65
2018-02-24T03:36:33.521Z,16.35
2018-02-24T03:39:03.256Z,16.92
2018-02-24T03:41:32.634Z,16.58
2018-02-24T03:44:02.507Z,16.23
2018-02-24T03:46:30.613Z,17.20
2018-02-24T03:48:59.603Z,16.60
2018-02-24T03:51:28.939Z,16.90
2018-02-24T03:53:57.156Z,15.85
2018-02-24T03:56:26.734Z,17.58
2018-02-24T03:58:56.033Z,16.52
2018-02-24T04:01:25.398Z,17.23
2018-02-24T04:03:54.971Z,15.77
2018-02-24T04:06:23.999Z,17.75
2018-02-24T04:08:53.728Z,17.25
2018-02-24T04:11:22.353Z,17.30
2018-02-24T04:13:52.263Z,17.92
2018-02-24T04:16:20.368Z,58.53
2018-02-24T04:18:49.722Z,19.48
2018-02-24T04:21:18.388Z,18.42
2018-02-24T04:23:46.621Z,16.95
2018-02-24T04:26:18.600Z,16.67
2018-02-24T04:28:48.319Z,16.65
2018-02-24T04:31:17.321Z,16.85
2018-02-24T04:33:45.559Z,17.48
2018-02-24T04:36:14.216Z,19.45
2018-02-24T04:38:43.802Z,16.60
2018-02-24T04:41:11.917Z,17.52
2018-02-24T04:43:41.504Z,17.30
2018-02-24T04:46:09.746Z,17.30
2018-02-24T04:48:37.964Z,18.55
2018-02-24T04:53:42.676Z,14.55
2018-02-24T04:56:12.427Z,17.62
2018-02-24T04:58:40.676Z,16.65
2018-02-24T05:01:10.057Z,15.57
2018-02-24T05:03:38.285Z,17.80
2018-02-24T05:06:06.511Z,18.20
2018-02-24T05:08:35.344Z,15.90
2018-02-24T05:11:04.703Z,17.30
2018-02-24T05:13:32.940Z,15.52
2018-02-24T05:16:01.480Z,16.85
2018-02-24T05:18:31.063Z,16.65
2018-02-24T05:20:59.310Z,15.57
2018-02-24T05:23:28.656Z,18.15
2018-02-24T05:25:57.275Z,16.02
2018-02-24T05:28:25.892Z,16.30
2018-02-24T05:30:57.045Z,18.42
2018-02-24T05:33:25.548Z,18.77
2018-02-24T05:35:55.128Z,16.58
2018-02-24T05:38:24.692Z,17.73
2018-02-24T05:40:52.915Z,15.57
2018-02-24T05:43:22.491Z,20.17
2018-02-24T05:45:50.752Z,17.73
2018-02-24T05:48:18.975Z,17.37
2018-02-24T05:50:47.199Z,17.75
2018-02-24T05:53:17.191Z,17.87
2018-02-24T05:55:46.552Z,16.65
2018-02-24T05:58:16.128Z,17.83
2018-02-24T06:00:45.960Z,19.35
2018-02-24T06:03:15.423Z,17.87
2018-02-24T06:05:44.897Z,19.08
2018-02-24T06:08:15.348Z,19.10
2018-02-24T06:10:44.216Z,18.70
2018-02-24T06:13:13.960Z,17.73
2018-02-24T06:15:42.664Z,18.67
2018-02-24T06:18:13.232Z,18.00
2018-02-24T06:20:42.149Z,19.12
2018-02-24T06:23:11.880Z,19.60
2018-02-24T06:25:40.116Z,17.98
2018-02-24T06:28:08.349Z,17.75
2018-02-24T06:30:38.616Z,18.62
2018-02-24T06:33:08.208Z,19.10
2018-02-24T06:35:37.663Z,17.90
2018-02-24T06:38:08.149Z,17.30
2018-02-24T06:40:36.773Z,18.67
2018-02-24T06:43:05.001Z,18.37
2018-02-24T06:45:33.549Z,17.48
2018-02-24T06:48:02.916Z,17.42
2018-02-24T06:50:31.135Z,19.15
2018-02-24T06:53:00.667Z,18.90
2018-02-24T06:55:29.308Z,19.37
2018-02-24T06:57:58.313Z,16.50
2018-02-24T07:00:27.990Z,17.52
2018-02-24T07:02:57.729Z,19.05
2018-02-24T07:05:25.964Z,15.40
2018-02-24T07:07:54.695Z,17.15
2018-02-24T07:10:22.924Z,18.15
2018-02-24T07:12:52.285Z,18.40
2018-02-24T07:15:21.173Z,16.55
2018-02-24T07:17:50.748Z,20.23
2018-02-24T07:20:18.852Z,15.77
2018-02-24T07:22:47.613Z,16.98
2018-02-24T07:25:16.605Z,17.55
2018-02-24T07:27:44.837Z,18.83
2018-02-24T07:30:13.229Z,18.20
2018-02-24T07:32:43.444Z,18.60
2018-02-24T07:35:11.680Z,17.37
2018-02-24T07:37:42.357Z,17.08
2018-02-24T07:40:10.628Z,17.23
2018-02-24T07:42:39.611Z,16.30
2018-02-24T07:45:08.568Z,17.40
2018-02-24T07:47:37.560Z,17.02
2018-02-24T07:50:05.792Z,17.02
2018-02-24T07:52:35.428Z,18.30
2018-02-24T07:55:04.052Z,16.33
2018-02-24T07:57:32.280Z,18.42
2018-02-24T08:00:01.717Z,16.58
2018-02-24T08:02:29.960Z,16.17
2018-02-24T08:04:58.587Z,17.42
2018-02-24T08:07:27.084Z,18.67
2018-02-24T08:09:56.816Z,17.33
2018-02-24T08:12:26.399Z,16.30
2018-02-24T08:14:55.879Z,16.17
2018-02-24T08:17:24.876Z,15.68
2018-02-24T08:19:53.102Z,18.10
2018-02-24T08:22:23.259Z,15.45
2018-02-24T08:24:52.133Z,15.75
2018-02-24T08:27:20.359Z,14.95
2018-02-24T08:29:50.315Z,15.55
2018-02-24T08:32:19.783Z,15.77
2018-02-24T08:34:49.232Z,16.50
2018-02-24T08:37:18.152Z,16.23
2018-02-24T08:39:46.385Z,15.87
2018-02-24T08:42:16.120Z,14.83
2018-02-24T08:44:45.356Z,15.23
2018-02-24T08:47:14.370Z,15.07
2018-02-24T08:49:42.620Z,13.73
2018-02-24T08:52:11.094Z,14.87
2018-02-24T08:54:39.376Z,13.23
2018-02-24T08:57:08.986Z,15.60
2018-02-24T08:59:38.427Z,15.73
2018-02-24T09:02:07.056Z,14.43
2018-02-24T09:04:35.289Z,14.67
2018-02-24T09:07:04.531Z,14.40
2018-02-24T09:09:34.271Z,14.00
2018-02-24T09:12:02.500Z,15.07
2018-02-24T09:14:32.543Z,16.27
2018-02-24T09:17:01.544Z,13.33
2018-02-24T09:19:29.785Z,19.03
2018-02-24T09:21:59.108Z,15.53
2018-02-24T09:24:28.124Z,14.87
2018-02-24T09:26:56.355Z,15.10
2018-02-24T09:29:24.729Z,14.90
2018-02-24T09:31:52.960Z,15.03
2018-02-24T09:34:21.193Z,14.50
2018-02-24T09:36:52.592Z,14.70
2018-02-24T09:39:21.592Z,14.93
2018-02-24T09:41:49.828Z,13.90
2018-02-24T09:44:18.988Z,13.93
2018-02-24T09:46:47.985Z,13.37
2018-02-24T09:49:16.222Z,15.07
2018-02-24T09:51:46.120Z,14.27
2018-02-24T09:54:14.369Z,14.50
2018-02-24T09:56:43.749Z,14.30
2018-02-24T09:59:12.345Z,14.57
2018-02-24T10:01:40.596Z,13.50
2018-02-24T10:04:08.886Z,14.67
2018-02-24T10:06:38.056Z,15.17
2018-02-24T10:09:07.061Z,12.20
2018-02-24T10:11:36.052Z,13.63
2018-02-24T10:14:05.216Z,13.57
2018-02-24T10:16:34.951Z,12.97
2018-02-24T10:19:04.536Z,13.70
2018-02-24T10:21:33.088Z,13.87
2018-02-24T10:24:02.828Z,14.60
2018-02-24T10:26:31.828Z,13.10
2018-02-24T10:29:01.391Z,13.20
2018-02-24T10:31:29.632Z,13.43
2018-02-24T10:33:57.909Z,13.67
2018-02-24T10:36:27.515Z,11.00
2018-02-24T10:38:58.375Z,12.97
2018-02-24T10:41:26.485Z,13.60
2018-02-24T10:43:55.899Z,12.80
2018-02-24T10:46:25.640Z,12.80
2018-02-24T10:49:01.327Z,13.53
2018-02-24T10:51:29.834Z,12.57
2018-02-24T10:53:58.073Z,12.20
2018-02-24T10:56:27.254Z,10.47
2018-02-24T10:58:56.276Z,11.57
2018-02-24T11:01:24.512Z,11.93
2018-02-24T11:03:53.637Z,11.07
2018-02-24T11:06:22.635Z,12.37
2018-02-24T11:08:50.868Z,12.20
2018-02-24T11:11:20.621Z,13.37
2018-02-24T11:13:49.559Z,11.70
2018-02-24T11:16:18.176Z,11.73
2018-02-24T11:18:47.391Z,11.70
2018-02-24T11:21:16.401Z,13.10
2018-02-24T11:23:45.420Z,12.17
2018-02-24T11:26:14.664Z,11.00
2018-02-24T11:28:43.680Z,10.30
2018-02-24T11:31:12.668Z,11.60
2018-02-24T11:33:42.216Z,11.07
2018-02-24T11:36:11.960Z,12.50
2018-02-24T11:38:40.196Z,11.50
2018-02-24T11:41:10.224Z,11.10
2018-02-24T11:43:38.462Z,10.87
2018-02-24T11:46:06.694Z,11.97
2018-02-24T11:48:36.639Z,10.73
2018-02-24T11:51:06.368Z,8.97
2018-02-24T11:53:34.989Z,9.70
2018-02-24T11:56:04.868Z,8.40
2018-02-24T11:58:33.108Z,9.27
2018-02-24T12:01:01.348Z,8.27
2018-02-24T12:03:30.051Z,8.93
2018-02-24T12:05:59.633Z,7.70
2018-02-24T12:08:27.786Z,9.53
2018-02-24T12:10:57.247Z,7.30
2018-02-24T12:13:26.819Z,8.37
2018-02-24T12:15:55.694Z,8.10
2018-02-24T12:18:24.151Z,8.30
2018-02-24T12:20:52.764Z,8.17
2018-02-24T12:23:22.341Z,8.43
2018-02-24T12:25:50.981Z,7.57
2018-02-24T12:28:19.200Z,6.70
2018-02-24T12:30:48.581Z,6.93
2018-02-24T12:33:17.868Z,7.03
2018-02-24T12:35:46.501Z,6.60
2018-02-24T12:38:14.732Z,7.83
2018-02-24T12:40:43.688Z,6.50
2018-02-24T12:43:13.456Z,7.80
2018-02-24T12:45:41.692Z,8.23
2018-02-24T12:48:10.228Z,6.97
2018-02-24T12:50:39.221Z,6.10
2018-02-24T12:53:07.448Z,7.10
2018-02-24T12:55:37.556Z,7.20
2018-02-24T12:58:05.776Z,6.53
2018-02-24T13:00:34.017Z,6.73
2018-02-24T13:03:02.548Z,6.10
2018-02-24T13:05:30.789Z,7.67
2018-02-24T13:08:00.179Z,6.10
2018-02-24T13:10:28.755Z,5.80
2018-02-24T13:12:56.968Z,6.93
2018-02-24T13:15:25.197Z,7.20
2018-02-24T13:17:53.612Z,6.67
2018-02-24T13:20:23.340Z,6.40
2018-02-24T13:22:51.569Z,6.83
2018-02-24T13:25:24.690Z,7.23
2018-02-24T13:27:53.681Z,7.20
2018-02-24T13:30:21.900Z,7.33
2018-02-24T13:32:51.045Z,6.03
2018-02-24T13:35:20.024Z,7.30
2018-02-24T13:37:48.263Z,6.43
2018-02-24T13:40:18.126Z,6.17
2018-02-24T13:42:47.736Z,6.20
2018-02-24T13:45:16.590Z,6.13
2018-02-24T13:47:45.899Z,6.60
2018-02-24T13:50:14.121Z,7.03
2018-02-24T13:52:43.107Z,5.33
2018-02-24T13:55:12.679Z,5.47
2018-02-24T13:57:42.345Z,4.93
2018-02-24T14:00:10.564Z,5.20
2018-02-24T14:02:40.632Z,4.97
2018-02-24T14:05:08.907Z,5.57
2018-02-24T14:07:38.640Z,4.70
2018-02-24T14:10:07.869Z,4.43
2018-02-24T14:12:36.856Z,4.53
2018-02-24T14:15:06.428Z,4.33
2018-02-24T14:17:35.636Z,4.17
2018-02-24T14:20:05.368Z,4.87
2018-02-24T14:22:33.996Z,4.77
2018-02-24T14:25:04.536Z,4.47
2018-02-24T14:27:33.535Z,4.27
2018-02-24T14:30:01.776Z,5.00
2018-02-24T14:32:31.005Z,5.20
2018-02-24T14:35:00.033Z,4.23
2018-02-24T14:37:28.960Z,3.77
2018-02-24T14:39:57.446Z,5.30
2018-02-24T14:42:26.432Z,5.73
2018-02-24T14:44:56.008Z,4.17
2018-02-24T14:47:24.988Z,5.50
2018-02-24T14:49:53.652Z,4.90
2018-02-24T14:52:23.275Z,4.73
2018-02-24T14:54:54.812Z,5.90
2018-02-24T14:57:24.395Z,5.00
2018-02-24T14:59:53.677Z,5.63
2018-02-24T16:17:27.313Z,8.52
2018-02-24T16:19:57.204Z,7.40
2018-02-24T16:22:26.995Z,7.20
2018-02-24T16:24:56.452Z,7.00
2018-02-24T16:27:25.911Z,7.03
2018-02-24T16:29:55.181Z,7.18
2018-02-24T16:32:24.204Z,7.15
2018-02-24T16:34:53.196Z,8.77
2018-02-24T16:37:22.193Z,7.93
2018-02-24T16:39:50.453Z,8.75
2018-02-24T16:42:18.688Z,7.93
2018-02-24T16:44:47.692Z,8.00
2018-02-24T16:47:17.303Z,8.27
2018-02-24T16:49:46.172Z,8.30
2018-02-24T16:52:14.394Z,7.50
2018-02-24T16:54:43.040Z,7.35
2018-02-24T16:57:11.260Z,6.93
2018-02-24T16:59:39.484Z,7.30
2018-02-24T17:02:08.500Z,6.55
2018-02-24T17:04:38.073Z,6.93
2018-02-24T17:07:06.592Z,6.78
2018-02-24T17:09:35.258Z,6.15
2018-02-24T17:12:03.509Z,5.75
2018-02-24T17:14:31.752Z,6.62
2018-02-24T17:17:01.361Z,6.82
2018-02-24T17:19:30.920Z,6.55
2018-02-24T17:22:00.328Z,6.32
2018-02-24T17:24:28.637Z,5.35
2018-02-24T17:26:57.657Z,5.15
2018-02-24T17:29:25.875Z,5.50
2018-02-24T17:31:54.122Z,5.07
2018-02-24T17:34:24.092Z,5.15
2018-02-24T17:36:52.628Z,5.57
2018-02-24T17:39:22.191Z,5.03
2018-02-24T17:41:50.291Z,4.75
2018-02-24T17:44:19.899Z,4.47
2018-02-24T17:46:48.773Z,5.07
2018-02-24T17:49:18.355Z,5.28
2018-02-24T17:51:46.885Z,5.40
2018-02-24T17:54:15.492Z,4.43
2018-02-24T17:56:44.483Z,3.83
2018-02-24T17:59:13.128Z,4.47
2018-02-24T18:01:41.341Z,4.30
2018-02-24T18:04:09.568Z,3.50
2018-02-24T18:06:39.183Z,4.82
2018-02-24T18:09:07.676Z,3.25
2018-02-24T18:11:37.212Z,4.53
2018-02-24T18:14:05.820Z,3.40
2018-02-24T18:16:34.824Z,3.37
2018-02-24T18:19:03.108Z,3.25
2018-02-24T18:21:32.686Z,3.25
2018-02-24T18:24:00.792Z,4.28
2018-02-24T18:26:29.501Z,3.12
2018-02-24T18:28:58.500Z,3.10
2018-02-24T18:31:26.728Z,3.67
2018-02-24T18:33:56.788Z,3.72
2018-02-24T18:36:25.644Z,3.65
2018-02-24T18:38:53.917Z,3.15
2018-02-24T18:41:22.157Z,3.00
2018-02-24T18:43:51.904Z,2.33
2018-02-24T18:46:20.120Z,3.25
2018-02-24T18:48:48.364Z,3.30
2018-02-24T18:51:17.391Z,3.42
2018-02-24T18:53:45.997Z,3.65
2018-02-24T18:56:14.212Z,3.20
2018-02-24T18:58:43.976Z,3.50
2018-02-24T19:01:12.191Z,3.08
2018-02-24T19:03:40.408Z,2.75
2018-02-24T19:06:08.652Z,2.22
2018-02-24T19:08:36.876Z,2.20
2018-02-24T19:11:05.141Z,2.90
2018-02-24T19:13:34.724Z,2.87
2018-02-24T19:16:02.878Z,2.28
2018-02-24T19:18:31.110Z,2.45
2018-02-24T19:20:59.354Z,2.80
2018-02-24T19:23:28.978Z,2.80
2018-02-24T19:25:57.072Z,2.80
2018-02-24T19:28:26.052Z,3.10
2018-02-24T19:30:55.443Z,1.83
2018-02-24T19:33:23.660Z,2.03
2018-02-24T19:35:53.224Z,2.75
2018-02-24T19:38:21.748Z,2.25
2018-02-24T19:40:49.960Z,2.58
2018-02-24T19:43:18.185Z,2.50
2018-02-24T19:45:47.965Z,2.35
2018-02-24T19:48:16.185Z,2.35
2018-02-24T19:50:44.399Z,2.40
2018-02-24T19:53:12.656Z,2.00
2018-02-24T19:55:42.227Z,2.20
2018-02-24T19:58:10.742Z,2.55
2018-02-24T20:00:39.780Z,2.35
2018-02-24T20:03:08.760Z,1.65
2018-02-24T20:05:38.324Z,2.50
2018-02-24T20:08:07.821Z,3.03
2018-02-24T20:10:37.327Z,2.95
2018-02-24T20:13:06.708Z,2.20
2018-02-24T20:15:36.200Z,2.40
2018-02-24T20:18:05.648Z,2.37
2018-02-24T20:20:35.099Z,2.97
2018-02-24T20:23:04.536Z,2.40
2018-02-24T20:25:33.928Z,2.80
2018-02-24T20:28:02.169Z,3.55
2018-02-24T20:30:31.970Z,2.47
2018-02-24T20:33:00.181Z,2.80
2018-02-24T20:35:28.426Z,2.80
2018-02-24T20:37:58.225Z,2.42
2018-02-24T20:40:26.317Z,2.97
2018-02-24T20:42:54.532Z,2.50
2018-02-24T20:45:24.144Z,3.22
2018-02-24T20:47:52.632Z,2.67
2018-02-24T20:50:20.852Z,2.33
2018-02-24T20:52:49.129Z,2.97
2018-02-24T20:55:18.704Z,2.53
2018-02-24T20:57:47.212Z,2.60
2018-02-24T21:00:16.240Z,2.90
2018-02-24T21:02:45.224Z,2.62
2018-02-24T21:05:13.443Z,2.30
2018-02-24T21:07:42.936Z,2.30
2018-02-24T21:10:12.504Z,2.37
2018-02-24T21:12:40.597Z,3.50
2018-02-24T21:15:10.212Z,2.25
2018-02-24T21:17:39.660Z,2.47
2018-02-24T21:20:08.521Z,2.80
2018-02-24T21:22:37.212Z,2.85
2018-02-24T21:25:06.784Z,2.78
2018-02-24T21:27:36.393Z,2.70
2018-02-24T21:30:06.255Z,3.90
2018-02-24T21:32:34.749Z,2.60
2018-02-24T21:35:03.006Z,2.62
2018-02-24T21:37:31.745Z,3.20
2018-02-24T21:40:01.115Z,2.50
2018-02-24T21:42:29.348Z,2.50
2018-02-24T21:44:59.620Z,3.15
2018-02-24T21:47:29.244Z,2.50
2018-02-24T21:49:58.236Z,2.70
2018-02-24T21:52:26.664Z,2.78
2018-02-24T21:54:55.640Z,2.87
2018-02-24T21:57:23.857Z,2.47
2018-02-24T21:59:52.640Z,2.80
2018-02-24T22:02:23.508Z,2.80
2018-02-24T22:04:52.765Z,2.70
2018-02-24T22:07:21.141Z,3.03
2018-02-24T22:09:49.356Z,2.33
2018-02-24T22:12:18.951Z,2.55
2018-02-24T22:14:47.964Z,2.35
2018-02-24T22:17:19.960Z,2.30
2018-02-24T22:19:49.259Z,2.80
2018-02-24T22:22:18.996Z,3.55
2018-02-24T22:24:47.994Z,2.80
2018-02-24T22:27:16.644Z,2.50
2018-02-24T22:29:45.248Z,3.40
2018-02-24T22:32:13.468Z,3.17
2018-02-24T22:34:42.656Z,2.80
2018-02-24T22:37:11.640Z,3.28
2018-02-24T22:39:39.848Z,2.87
2018-02-24T22:42:08.479Z,3.15
2018-02-24T22:44:38.048Z,3.05
2018-02-24T22:47:06.141Z,2.53
2018-02-24T22:49:34.425Z,3.08
2018-02-24T22:52:04.152Z,2.53
2018-02-24T22:54:33.160Z,2.85
2018-02-24T22:57:01.410Z,2.65
2018-02-24T22:59:30.404Z,3.05
2018-02-24T23:01:59.034Z,3.47
2018-02-24T23:04:27.287Z,2.70
2018-02-24T23:06:55.500Z,2.58
2018-02-24T23:09:25.223Z,3.42
2018-02-24T23:11:54.836Z,3.37
2018-02-24T23:14:23.325Z,3.85
2018-02-24T23:16:52.305Z,3.75
2018-02-24T23:19:22.483Z,3.75
2018-02-24T23:21:51.724Z,3.72
2018-02-24T23:24:19.937Z,3.78
2018-02-24T23:26:48.229Z,3.17
2018-02-24T23:29:16.452Z,3.60
2018-02-24T23:31:45.076Z,3.95
2018-02-24T23:34:14.681Z,3.12
2018-02-24T23:36:42.776Z,3.97
2018-02-24T23:39:10.987Z,3.80
2018-02-24T23:41:39.241Z,3.72
2018-02-24T23:44:07.459Z,2.80
2018-02-24T23:46:36.813Z,3.15
2018-02-24T23:49:05.064Z,4.65
2018-02-24T23:51:33.285Z,2.72
2018-02-24T23:54:01.517Z,3.58
2018-02-24T23:56:30.500Z,3.12
2018-02-24T23:58:59.871Z,3.90
